createdAt,value
2023-03-06T00:01:12.864Z,-0.07
2023-03-06T00:03:58.858Z,0.33
2023-03-06T00:06:44.842Z,0.66
2023-03-06T00:09:30.639Z,0.97
2023-03-06T00:12:16.629Z,1.32
2023-03-06T00:15:04.058Z,1.89
2023-03-06T00:17:51.627Z,2.36
2023-03-06T00:20:37.569Z,2.92
2023-03-06T00:23:23.395Z,3.35
2023-03-06T00:26:09.254Z,3.05
2023-03-06T00:28:55.251Z,3.47
2023-03-06T00:31:41.175Z,3.74
2023-03-06T00:34:27.259Z,3.96
2023-03-06T00:37:13.288Z,3.77
2023-03-06T00:39:59.126Z,4.28
2023-03-06T00:42:45.051Z,4.63
2023-03-06T00:45:30.892Z,4.94
2023-03-06T00:48:16.923Z,5.02
2023-03-06T00:51:02.924Z,4.94
2023-03-06T00:53:48.726Z,4.20
2023-03-06T00:56:34.564Z,3.03
2023-03-06T00:59:20.473Z,1.98
2023-03-06T01:02:06.459Z,1.60
2023-03-06T01:04:52.404Z,1.39
2023-03-06T01:07:38.412Z,0.92
2023-03-06T01:10:24.435Z,0.84
2023-03-06T01:13:10.377Z,0.55
2023-03-06T01:15:56.208Z,0.59
2023-03-06T01:18:42.156Z,0.63
2023-03-06T01:21:28.000Z,0.59
2023-03-06T01:24:13.933Z,0.76
2023-03-06T01:26:59.952Z,0.37
2023-03-06T01:29:46.282Z,1.07
2023-03-06T01:32:32.202Z,1.43
2023-03-06T01:35:18.786Z,1.65
2023-03-06T01:38:06.671Z,2.15
2023-03-06T01:40:52.586Z,2.30
2023-03-06T01:43:38.563Z,3.08
2023-03-06T01:46:24.521Z,3.03
2023-03-06T01:49:10.370Z,3.50
2023-03-06T01:51:56.168Z,4.08
2023-03-06T01:54:42.074Z,4.37
2023-03-06T01:57:27.984Z,4.63
2023-03-06T02:00:14.230Z,4.91
2023-03-06T02:03:00.260Z,4.51
2023-03-06T02:05:46.195Z,3.87
2023-03-06T02:08:32.004Z,2.87
2023-03-06T02:11:18.019Z,3.13
2023-03-06T02:14:03.844Z,3.35
2023-03-06T02:16:49.722Z,3.64
2023-03-06T02:19:35.529Z,4.09
2023-03-06T02:22:21.386Z,4.35
2023-03-06T02:25:07.213Z,4.67
2023-03-06T02:27:53.142Z,4.96
2023-03-06T02:30:39.052Z,5.30
2023-03-06T02:33:27.128Z,5.49
2023-03-06T02:36:12.995Z,5.59
2023-03-06T02:38:58.894Z,5.60
2023-03-06T02:41:44.801Z,5.45
2023-03-06T02:44:31.065Z,5.24
2023-03-06T02:47:16.980Z,5.09
2023-03-06T02:50:04.861Z,5.08
2023-03-06T02:52:50.629Z,5.33
2023-03-06T02:55:36.568Z,5.49
2023-03-06T02:58:22.603Z,5.63
2023-03-06T03:01:08.416Z,5.67
2023-03-06T03:03:54.273Z,5.73
2023-03-06T03:06:40.012Z,5.77
2023-03-06T03:09:25.857Z,5.83
2023-03-06T03:12:15.281Z,5.96
2023-03-06T03:15:01.069Z,6.02
2023-03-06T03:17:46.941Z,6.01
2023-03-06T03:20:32.659Z,6.02
2023-03-06T03:23:18.500Z,6.04
2023-03-06T03:26:04.409Z,6.08
2023-03-06T03:28:50.357Z,6.04
2023-03-06T03:31:36.187Z,6.11
2023-03-06T03:34:22.124Z,6.02
2023-03-06T03:37:07.943Z,6.13
2023-03-06T03:39:53.825Z,5.85
2023-03-06T03:42:39.808Z,5.86
2023-03-06T03:45:25.664Z,5.47
2023-03-06T03:48:11.585Z,5.24
2023-03-06T03:50:57.622Z,4.91
2023-03-06T03:53:43.505Z,4.70
2023-03-06T03:56:29.451Z,4.59
2023-03-06T03:59:15.429Z,4.55
2023-03-06T04:02:01.356Z,4.79
2023-03-06T04:04:49.426Z,4.52
2023-03-06T04:07:35.290Z,4.92
2023-03-06T04:10:21.244Z,5.03
2023-03-06T04:13:09.854Z,5.39
2023-03-06T04:15:55.715Z,5.39
2023-03-06T04:18:41.597Z,5.25
2023-03-06T04:21:27.488Z,5.58
2023-03-06T04:24:13.284Z,5.59
2023-03-06T04:26:59.181Z,5.71
2023-03-06T04:29:45.041Z,5.77
2023-03-06T04:32:30.969Z,5.83
2023-03-06T04:35:16.983Z,5.84
2023-03-06T04:38:02.945Z,5.94
2023-03-06T04:40:48.839Z,5.96
2023-03-06T04:43:34.806Z,6.02
2023-03-06T04:46:20.748Z,5.98
2023-03-06T04:49:06.593Z,6.04
2023-03-06T04:51:52.470Z,6.12
2023-03-06T04:54:39.830Z,6.13
2023-03-06T04:57:25.727Z,5.97
2023-03-06T05:00:11.600Z,5.95
2023-03-06T05:02:57.386Z,5.84
2023-03-06T05:05:43.454Z,5.85
2023-03-06T05:08:29.254Z,5.76
2023-03-06T05:11:15.123Z,5.70
2023-03-06T05:14:01.088Z,5.79
2023-03-06T05:16:46.743Z,5.95
2023-03-06T05:19:32.728Z,6.03
2023-03-06T05:22:18.578Z,5.97
2023-03-06T05:25:04.437Z,6.02
2023-03-06T05:27:50.482Z,6.02
2023-03-06T05:30:37.168Z,6.04
2023-03-06T05:33:23.140Z,5.92
2023-03-06T05:36:09.161Z,5.94
2023-03-06T05:38:55.067Z,5.96
2023-03-06T05:41:41.340Z,5.99
2023-03-06T05:44:27.078Z,6.08
2023-03-06T05:47:13.013Z,6.10
2023-03-06T05:49:58.892Z,6.12
2023-03-06T05:52:44.769Z,6.07
2023-03-06T05:55:30.536Z,6.02
2023-03-06T05:58:16.315Z,6.00
2023-03-06T06:01:02.141Z,6.03
2023-03-06T06:03:48.078Z,6.03
2023-03-06T06:06:33.931Z,6.03
2023-03-06T06:09:19.955Z,5.95
2023-03-06T06:12:07.858Z,5.98
2023-03-06T06:14:53.629Z,5.95
2023-03-06T06:17:40.132Z,5.98
2023-03-06T06:20:27.284Z,5.81
2023-03-06T06:23:13.127Z,5.81
2023-03-06T06:25:59.142Z,5.93
2023-03-06T06:28:45.045Z,6.09
2023-03-06T06:31:31.138Z,6.16
2023-03-06T06:34:17.012Z,6.16
2023-03-06T06:37:02.873Z,6.07
2023-03-06T06:39:48.845Z,6.12
2023-03-06T06:42:39.685Z,6.27
2023-03-06T06:45:26.055Z,6.28
2023-03-06T06:48:11.920Z,6.25
2023-03-06T06:50:57.835Z,6.39
2023-03-06T06:53:43.602Z,6.39
2023-03-06T06:56:29.486Z,6.40
2023-03-06T06:59:17.362Z,6.48
2023-03-06T07:02:03.539Z,6.39
2023-03-06T07:05:02.977Z,6.08
2023-03-06T07:07:49.731Z,6.09
2023-03-06T07:10:36.040Z,6.30
2023-03-06T07:13:22.029Z,6.37
2023-03-06T07:16:08.259Z,6.50
2023-03-06T07:18:54.626Z,6.58
2023-03-06T07:21:40.563Z,6.49
2023-03-06T07:24:26.981Z,5.96
2023-03-06T07:27:13.320Z,5.17
2023-03-06T07:30:00.452Z,5.16
2023-03-06T07:32:46.502Z,5.49
2023-03-06T07:35:32.545Z,5.79
2023-03-06T07:38:18.514Z,6.06
2023-03-06T07:41:04.366Z,6.20
2023-03-06T07:43:50.207Z,6.32
2023-03-06T07:46:36.137Z,6.53
2023-03-06T07:49:22.107Z,6.66
2023-03-06T07:52:08.185Z,6.79
2023-03-06T07:54:54.488Z,6.92
2023-03-06T07:57:40.379Z,6.46
2023-03-06T08:00:26.438Z,6.69
2023-03-06T08:03:12.772Z,6.71
2023-03-06T08:05:58.830Z,6.21
2023-03-06T08:08:44.729Z,6.61
2023-03-06T08:11:30.728Z,6.88
2023-03-06T08:14:16.760Z,7.02
2023-03-06T08:17:02.654Z,7.04
2023-03-06T08:19:48.628Z,6.67
2023-03-06T08:22:34.480Z,6.13
2023-03-06T08:25:20.281Z,6.83
2023-03-06T08:28:06.623Z,7.03
2023-03-06T08:30:52.658Z,6.94
2023-03-06T08:33:38.541Z,5.53
2023-03-06T08:36:24.646Z,4.44
2023-03-06T08:39:10.619Z,2.51
2023-03-06T08:41:56.617Z,4.02
2023-03-06T08:44:42.555Z,4.77
2023-03-06T08:47:28.515Z,3.57
2023-03-06T08:50:14.395Z,4.38
2023-03-06T08:53:01.871Z,4.08
2023-03-06T08:55:48.705Z,4.96
2023-03-06T08:58:34.553Z,5.44
2023-03-06T09:01:20.916Z,4.81
2023-03-06T09:04:06.727Z,3.79
2023-03-06T09:06:54.574Z,3.50
2023-03-06T09:09:41.660Z,3.23
2023-03-06T09:12:29.282Z,3.55
2023-03-06T09:15:16.846Z,3.95
2023-03-06T09:18:02.769Z,4.42
2023-03-06T09:20:48.577Z,4.76
2023-03-06T09:23:34.578Z,4.70
2023-03-06T09:26:28.021Z,4.99
2023-03-06T09:29:19.151Z,3.47
2023-03-06T09:32:05.170Z,3.76
2023-03-06T09:34:50.961Z,3.79
2023-03-06T09:37:36.964Z,3.37
2023-03-06T09:40:22.831Z,2.84
2023-03-06T09:43:08.732Z,3.20
2023-03-06T09:45:54.723Z,3.93
2023-03-06T09:48:40.686Z,4.67
2023-03-06T09:51:26.621Z,5.25
2023-03-06T09:54:12.516Z,4.14
2023-03-06T09:56:58.517Z,3.66
2023-03-06T09:59:44.315Z,4.99
2023-03-06T10:02:30.227Z,5.37
2023-03-06T10:05:16.531Z,5.41
2023-03-06T10:08:02.923Z,5.84
2023-03-06T10:10:48.809Z,6.12
2023-03-06T10:13:34.731Z,6.56
2023-03-06T10:16:20.677Z,5.52
2023-03-06T10:19:06.627Z,5.74
2023-03-06T10:21:52.542Z,6.39
2023-03-06T10:24:38.506Z,6.22
2023-03-06T10:27:24.481Z,7.18
2023-03-06T10:30:10.491Z,7.51
2023-03-06T10:32:56.379Z,7.40
2023-03-06T10:35:42.293Z,7.65
2023-03-06T10:38:28.267Z,7.89
2023-03-06T10:41:14.218Z,7.67
2023-03-06T10:44:00.414Z,7.63
2023-03-06T10:46:46.348Z,6.72
2023-03-06T10:49:32.239Z,6.98
2023-03-06T10:52:18.096Z,5.88
2023-03-06T10:55:03.974Z,4.55
2023-03-06T10:57:49.912Z,4.66
2023-03-06T11:00:35.810Z,5.94
2023-03-06T11:03:21.683Z,6.27
2023-03-06T11:06:07.739Z,6.47
2023-03-06T11:08:53.648Z,6.21
2023-03-06T11:11:39.670Z,5.86
2023-03-06T11:14:27.663Z,6.15
2023-03-06T11:17:13.655Z,6.12
2023-03-06T11:19:59.698Z,6.42
2023-03-06T11:22:47.539Z,5.75
2023-03-06T11:25:34.853Z,5.98
2023-03-06T11:28:20.827Z,5.92
2023-03-06T11:31:06.813Z,5.32
2023-03-06T11:33:52.823Z,4.60
2023-03-06T11:36:38.983Z,4.54
2023-03-06T11:39:25.130Z,4.33
2023-03-06T11:42:11.121Z,4.54
2023-03-06T11:44:57.088Z,4.64
2023-03-06T11:47:42.908Z,4.34
2023-03-06T11:50:29.003Z,4.56
2023-03-06T11:53:15.393Z,4.71
2023-03-06T11:56:01.261Z,5.63
2023-03-06T11:58:47.104Z,6.87
2023-03-06T12:01:32.970Z,7.23
2023-03-06T12:04:18.714Z,7.21
2023-03-06T12:07:07.221Z,5.61
2023-03-06T12:10:01.074Z,6.12
2023-03-06T12:12:48.540Z,6.81
2023-03-06T12:15:34.436Z,6.78
2023-03-06T12:18:21.454Z,7.53
2023-03-06T12:21:07.400Z,6.98
2023-03-06T12:23:53.136Z,7.21
2023-03-06T12:26:38.997Z,8.03
2023-03-06T12:29:25.136Z,8.62
2023-03-06T12:32:11.102Z,9.04
2023-03-06T12:34:57.069Z,9.11
2023-03-06T12:37:42.969Z,8.57
2023-03-06T12:40:29.011Z,8.50
2023-03-06T12:43:14.933Z,8.38
2023-03-06T12:46:00.825Z,8.67
2023-03-06T12:48:46.735Z,8.59
2023-03-06T12:51:32.805Z,8.51
2023-03-06T12:54:18.686Z,8.00
2023-03-06T12:57:04.479Z,8.35
2023-03-06T12:59:50.477Z,8.48
2023-03-06T13:02:36.427Z,8.61
2023-03-06T13:05:26.732Z,9.31
2023-03-06T13:08:13.089Z,8.77
2023-03-06T13:10:58.883Z,8.73
2023-03-06T13:13:44.858Z,8.71
2023-03-06T13:16:30.821Z,9.12
2023-03-06T13:19:16.900Z,9.51
2023-03-06T13:22:02.875Z,9.70
2023-03-06T13:24:50.819Z,10.09
2023-03-06T13:27:38.642Z,10.25
2023-03-06T13:30:24.623Z,10.19
2023-03-06T13:33:10.551Z,8.93
2023-03-06T13:35:56.488Z,9.80
2023-03-06T13:38:42.625Z,8.59
2023-03-06T13:41:28.480Z,9.09
2023-03-06T13:44:14.479Z,8.93
2023-03-06T13:47:00.414Z,9.12
2023-03-06T13:49:46.348Z,9.40
2023-03-06T13:52:32.333Z,9.38
2023-03-06T13:55:24.910Z,9.29
2023-03-06T13:58:10.968Z,10.08
2023-03-06T14:00:56.844Z,10.21
2023-03-06T14:03:42.880Z,9.71
2023-03-06T14:06:28.638Z,10.21
2023-03-06T14:09:14.498Z,10.08
2023-03-06T14:12:00.503Z,10.51
2023-03-06T14:14:46.601Z,10.87
2023-03-06T14:17:32.700Z,10.86
2023-03-06T14:20:18.672Z,11.23
2023-03-06T14:23:04.611Z,11.42
2023-03-06T14:25:50.444Z,11.34
2023-03-06T14:28:36.216Z,10.96
2023-03-06T14:31:22.225Z,10.59
2023-03-06T14:34:08.291Z,10.36
2023-03-06T14:36:54.331Z,10.21
2023-03-06T14:39:40.371Z,9.95
2023-03-06T14:42:26.166Z,9.92
2023-03-06T14:45:12.087Z,9.93
2023-03-06T14:47:58.128Z,10.16
2023-03-06T14:50:44.036Z,10.32
2023-03-06T14:53:30.009Z,10.23
2023-03-06T14:56:15.926Z,10.71
2023-03-06T14:59:01.801Z,10.54
2023-03-06T15:01:47.779Z,10.66
2023-03-06T15:04:36.239Z,10.87
2023-03-06T15:07:26.099Z,11.33
2023-03-06T15:10:11.966Z,11.19
2023-03-06T15:12:57.844Z,11.28
2023-03-06T15:15:43.692Z,11.14
2023-03-06T15:18:29.652Z,11.16
2023-03-06T15:21:15.539Z,11.40
2023-03-06T15:24:01.514Z,11.49
2023-03-06T15:26:47.470Z,10.84
2023-03-06T15:29:33.288Z,10.81
2023-03-06T15:32:19.165Z,10.21
2023-03-06T15:35:05.149Z,10.61
2023-03-06T15:37:51.081Z,10.05
2023-03-06T15:40:37.060Z,10.42
2023-03-06T15:43:22.896Z,10.24
2023-03-06T15:46:08.981Z,10.52
2023-03-06T15:48:54.977Z,10.46
2023-03-06T15:51:40.932Z,10.32
2023-03-06T15:54:26.800Z,10.44
2023-03-06T15:57:12.784Z,10.44
2023-03-06T15:59:58.786Z,10.14
2023-03-06T16:02:45.707Z,9.36
2023-03-06T16:05:34.702Z,8.55
2023-03-06T16:08:20.636Z,9.00
2023-03-06T16:11:06.569Z,8.36
2023-03-06T16:13:52.439Z,8.17
2023-03-06T16:16:38.431Z,6.72
2023-03-06T16:19:26.294Z,6.38
2023-03-06T16:22:13.518Z,6.55
2023-03-06T16:24:59.503Z,6.36
2023-03-06T16:27:45.635Z,6.03
2023-03-06T16:30:31.607Z,6.11
2023-03-06T16:33:17.574Z,5.82
2023-03-06T16:36:03.543Z,5.59
2023-03-06T16:38:49.420Z,5.40
2023-03-06T16:41:36.244Z,5.37
2023-03-06T16:44:25.622Z,5.61
2023-03-06T16:47:11.517Z,5.53
2023-03-06T16:49:57.611Z,5.37
2023-03-06T16:52:43.805Z,5.08
2023-03-06T16:55:29.712Z,4.99
2023-03-06T16:58:15.690Z,4.50
2023-03-06T17:01:01.646Z,4.37
2023-03-06T17:03:47.933Z,4.37
2023-03-06T17:06:33.931Z,4.18
2023-03-06T17:09:20.859Z,4.42
2023-03-06T17:12:06.796Z,4.91
2023-03-06T17:14:52.647Z,4.02
2023-03-06T17:17:40.418Z,3.84
2023-03-06T17:20:26.425Z,3.38
2023-03-06T17:23:12.429Z,3.10
2023-03-06T17:25:58.367Z,2.95
2023-03-06T17:28:44.359Z,2.63
2023-03-06T17:31:30.362Z,2.74
2023-03-06T17:34:16.282Z,2.72
2023-03-06T17:37:02.279Z,2.59
2023-03-06T17:39:48.258Z,2.78
2023-03-06T17:42:34.210Z,3.08
2023-03-06T17:45:20.358Z,2.85
2023-03-06T17:48:06.195Z,2.96
2023-03-06T17:50:52.124Z,2.48
2023-03-06T17:53:38.075Z,2.31
2023-03-06T17:56:23.965Z,2.38
2023-03-06T17:59:09.922Z,2.19
2023-03-06T18:01:55.857Z,2.44
2023-03-06T18:04:41.788Z,2.71
2023-03-06T18:07:29.896Z,2.85
2023-03-06T18:10:15.776Z,2.58
2023-03-06T18:13:01.728Z,2.65
2023-03-06T18:15:47.642Z,2.51
2023-03-06T18:18:33.993Z,2.21
2023-03-06T18:21:19.958Z,2.17
2023-03-06T18:24:05.961Z,1.92
2023-03-06T18:26:51.874Z,1.62
2023-03-06T18:29:37.973Z,1.77
2023-03-06T18:32:23.898Z,2.14
2023-03-06T18:35:09.712Z,1.82
2023-03-06T18:37:55.665Z,1.72
2023-03-06T18:40:41.502Z,1.75
2023-03-06T18:43:27.455Z,1.55
2023-03-06T18:46:13.547Z,1.62
2023-03-06T18:48:59.827Z,1.70
2023-03-06T18:51:45.781Z,2.14
2023-03-06T18:54:31.692Z,2.29
2023-03-06T18:57:17.534Z,1.97
2023-03-06T19:00:05.435Z,1.83
2023-03-06T19:02:51.352Z,1.95
2023-03-06T19:05:37.214Z,2.56
2023-03-06T19:08:23.124Z,3.37
2023-03-06T19:11:09.033Z,3.86
2023-03-06T19:13:55.347Z,3.72
2023-03-06T19:16:41.649Z,2.98
2023-03-06T19:19:27.560Z,2.14
2023-03-06T19:22:13.445Z,2.13
2023-03-06T19:25:06.601Z,3.05
2023-03-06T19:27:53.599Z,3.31
2023-03-06T19:30:39.343Z,3.58
2023-03-06T19:33:26.243Z,3.83
2023-03-06T19:36:12.234Z,3.87
2023-03-06T19:38:58.097Z,4.29
2023-03-06T19:41:44.047Z,4.64
2023-03-06T19:44:29.833Z,4.90
2023-03-06T19:47:15.827Z,5.22
2023-03-06T19:50:01.870Z,5.08
2023-03-06T19:52:48.261Z,4.94
2023-03-06T19:55:34.338Z,4.03
2023-03-06T19:58:20.175Z,4.62
2023-03-06T20:01:06.334Z,4.55
2023-03-06T20:03:52.591Z,4.19
2023-03-06T20:06:38.506Z,4.49
2023-03-06T20:09:24.437Z,4.23
2023-03-06T20:12:10.292Z,4.56
2023-03-06T20:14:56.206Z,4.61
2023-03-06T20:17:42.228Z,4.77
2023-03-06T20:20:28.636Z,5.15
2023-03-06T20:23:16.540Z,5.29
2023-03-06T20:26:02.900Z,5.26
2023-03-06T20:28:48.904Z,5.63
2023-03-06T20:31:34.728Z,5.43
2023-03-06T20:34:20.768Z,5.25
2023-03-06T20:37:06.602Z,5.44
2023-03-06T20:39:52.462Z,5.47
2023-03-06T20:42:38.951Z,5.53
2023-03-06T20:45:24.884Z,5.68
2023-03-06T20:48:10.625Z,5.88
2023-03-06T20:50:56.714Z,6.03
2023-03-06T20:53:42.522Z,6.20
2023-03-06T20:56:28.398Z,6.17
2023-03-06T20:59:14.292Z,5.82
2023-03-06T21:02:00.404Z,5.84
2023-03-06T21:04:46.669Z,5.64
2023-03-06T21:07:32.625Z,5.64
2023-03-06T21:10:18.553Z,5.73
2023-03-06T21:13:04.644Z,6.05
2023-03-06T21:15:50.559Z,6.13
2023-03-06T21:18:36.489Z,5.52
2023-03-06T21:21:22.351Z,5.56
2023-03-06T21:24:08.212Z,5.55
2023-03-06T21:26:54.246Z,5.12
2023-03-06T21:29:40.026Z,4.86
2023-03-06T21:32:25.889Z,5.24
2023-03-06T21:35:11.990Z,5.42
2023-03-06T21:37:57.744Z,5.50
2023-03-06T21:40:43.695Z,5.50
2023-03-06T21:43:29.499Z,5.63
2023-03-06T21:46:15.569Z,5.74
2023-03-06T21:49:01.679Z,5.74
2023-03-06T21:51:47.664Z,5.79
2023-03-06T21:54:33.694Z,5.77
2023-03-06T21:57:19.508Z,5.78
2023-03-06T22:00:05.475Z,5.81
2023-03-06T22:02:51.486Z,5.69
2023-03-06T22:05:37.197Z,5.64
2023-03-06T22:08:23.179Z,5.72
2023-03-06T22:11:09.137Z,5.77
2023-03-06T22:13:55.050Z,5.53
2023-03-06T22:16:41.562Z,5.68
2023-03-06T22:19:27.573Z,5.65
2023-03-06T22:22:13.577Z,5.56
2023-03-06T22:25:01.509Z,5.69
2023-03-06T22:27:48.994Z,5.86
2023-03-06T22:30:34.877Z,5.86
2023-03-06T22:33:21.026Z,6.03
2023-03-06T22:36:06.959Z,5.97
2023-03-06T22:38:53.034Z,5.92
2023-03-06T22:41:39.021Z,5.82
2023-03-06T22:44:24.831Z,5.57
2023-03-06T22:47:10.777Z,5.55
2023-03-06T22:49:56.782Z,5.74
2023-03-06T22:52:42.552Z,5.90
2023-03-06T22:55:28.433Z,5.70
2023-03-06T22:58:14.210Z,6.07
2023-03-06T23:01:00.240Z,5.56
2023-03-06T23:03:46.135Z,5.88
2023-03-06T23:06:32.047Z,5.83
2023-03-06T23:09:18.565Z,6.06
2023-03-06T23:12:04.469Z,6.19
2023-03-06T23:14:50.391Z,6.12
2023-03-06T23:17:36.195Z,6.35
2023-03-06T23:20:21.979Z,6.27
2023-03-06T23:23:07.928Z,5.81
2023-03-06T23:25:53.796Z,6.01
2023-03-06T23:28:39.602Z,6.00
2023-03-06T23:31:25.553Z,5.94
2023-03-06T23:34:11.512Z,6.01
2023-03-06T23:36:57.414Z,6.11
2023-03-06T23:39:43.446Z,6.20
2023-03-06T23:42:29.302Z,6.06
2023-03-06T23:45:15.231Z,6.19
2023-03-06T23:48:03.106Z,6.29
2023-03-06T23:50:48.963Z,6.43
2023-03-06T23:53:34.848Z,6.15
2023-03-06T23:56:20.881Z,6.18
2023-03-06T23:59:06.658Z,6.11
